sensor_id;sensor_type;location;lat;lon;timestamp;temperature;humidity
52044;DHT22;38053;53.100;6.078;2023-07-31T00:02:23;16.40;99.90
52044;DHT22;38053;53.100;6.078;2023-07-31T00:04:49;16.40;99.90
52044;DHT22;38053;53.100;6.078;2023-07-31T00:07:15;16.40;99.90
52044;DHT22;38053;53.100;6.078;2023-07-31T00:09:40;16.40;99.90
52044;DHT22;38053;53.100;6.078;2023-07-31T00:12:06;16.40;99.90
52044;DHT22;38053;53.100;6.078;2023-07-31T00:14:32;16.30;99.90
52044;DHT22;38053;53.100;6.078;2023-07-31T00:16:58;16.40;99.90
52044;DHT22;38053;53.100;6.078;2023-07-31T00:19:23;16.30;99.90
52044;DHT22;38053;53.100;6.078;2023-07-31T00:21:49;16.30;99.90
52044;DHT22;38053;53.100;6.078;2023-07-31T00:24:15;16.30;99.90
52044;DHT22;38053;53.100;6.078;2023-07-31T00:26:40;16.30;99.90
52044;DHT22;38053;53.100;6.078;2023-07-31T00:29:06;16.30;99.90
52044;DHT22;38053;53.100;6.078;2023-07-31T00:31:32;16.30;99.90
52044;DHT22;38053;53.100;6.078;2023-07-31T00:33:57;16.30;99.90
52044;DHT22;38053;53.100;6.078;2023-07-31T00:36:23;16.30;99.90
52044;DHT22;38053;53.100;6.078;2023-07-31T00:38:49;16.30;99.90
52044;DHT22;38053;53.100;6.078;2023-07-31T00:41:14;16.30;99.90
52044;DHT22;38053;53.100;6.078;2023-07-31T00:43:40;16.30;99.90
52044;DHT22;38053;53.100;6.078;2023-07-31T00:46:07;16.30;99.90
52044;DHT22;38053;53.100;6.078;2023-07-31T00:48:33;16.30;99.90
52044;DHT22;38053;53.100;6.078;2023-07-31T00:51:02;16.30;99.90
52044;DHT22;38053;53.100;6.078;2023-07-31T00:53:28;16.30;99.90
52044;DHT22;38053;53.100;6.078;2023-07-31T00:55:54;16.30;99.90
52044;DHT22;38053;53.100;6.078;2023-07-31T00:58:19;16.20;99.90
52044;DHT22;38053;53.100;6.078;2023-07-31T01:00:45;16.20;99.90
52044;DHT22;38053;53.100;6.078;2023-07-31T01:03:11;16.20;99.90
52044;DHT22;38053;53.100;6.078;2023-07-31T01:11:17;16.20;99.90
52044;DHT22;38053;53.100;6.078;2023-07-31T01:13:45;16.20;99.90
52044;DHT22;38053;53.100;6.078;2023-07-31T01:16:12;16.20;99.90
52044;DHT22;38053;53.100;6.078;2023-07-31T01:18:37;16.20;99.90
52044;DHT22;38053;53.100;6.078;2023-07-31T01:27:02;16.20;99.90
52044;DHT22;38053;53.100;6.078;2023-07-31T01:29:42;16.10;99.90
52044;DHT22;38053;53.100;6.078;2023-07-31T01:32:09;16.10;99.90
52044;DHT22;38053;53.100;6.078;2023-07-31T01:34:37;16.10;99.90
52044;DHT22;38053;53.100;6.078;2023-07-31T01:37:03;16.10;99.90
52044;DHT22;38053;53.100;6.078;2023-07-31T01:39:29;16.10;99.90
52044;DHT22;38053;53.100;6.078;2023-07-31T01:41:54;16.10;99.90
52044;DHT22;38053;53.100;6.078;2023-07-31T01:44:20;16.10;99.90
52044;DHT22;38053;53.100;6.078;2023-07-31T01:46:46;16.10;99.90
52044;DHT22;38053;53.100;6.078;2023-07-31T01:49:11;16.10;99.90
52044;DHT22;38053;53.100;6.078;2023-07-31T01:51:37;16.10;99.90
52044;DHT22;38053;53.100;6.078;2023-07-31T01:54:03;16.00;99.90
52044;DHT22;38053;53.100;6.078;2023-07-31T01:56:29;16.00;99.90
52044;DHT22;38053;53.100;6.078;2023-07-31T01:58:54;16.00;99.90
52044;DHT22;38053;53.100;6.078;2023-07-31T02:01:20;16.00;99.90
52044;DHT22;38053;53.100;6.078;2023-07-31T02:03:46;16.00;99.90
52044;DHT22;38053;53.100;6.078;2023-07-31T02:06:12;16.00;99.90
52044;DHT22;38053;53.100;6.078;2023-07-31T02:08:37;16.00;99.90
52044;DHT22;38053;53.100;6.078;2023-07-31T02:11:04;16.00;99.90
52044;DHT22;38053;53.100;6.078;2023-07-31T02:13:30;16.00;99.90
52044;DHT22;38053;53.100;6.078;2023-07-31T02:15:55;16.00;99.90
52044;DHT22;38053;53.100;6.078;2023-07-31T02:18:21;16.00;99.90
52044;DHT22;38053;53.100;6.078;2023-07-31T02:20:51;16.00;99.90
52044;DHT22;38053;53.100;6.078;2023-07-31T02:23:20;16.00;99.90
52044;DHT22;38053;53.100;6.078;2023-07-31T02:25:46;16.00;99.90
52044;DHT22;38053;53.100;6.078;2023-07-31T02:28:12;16.00;99.90
52044;DHT22;38053;53.100;6.078;2023-07-31T02:30:38;16.00;99.90
52044;DHT22;38053;53.100;6.078;2023-07-31T02:33:05;16.00;99.90
52044;DHT22;38053;53.100;6.078;2023-07-31T02:35:31;16.00;99.90
52044;DHT22;38053;53.100;6.078;2023-07-31T02:37:59;16.00;99.90
52044;DHT22;38053;53.100;6.078;2023-07-31T02:40:25;15.90;99.90
52044;DHT22;38053;53.100;6.078;2023-07-31T02:42:51;15.90;99.90
52044;DHT22;38053;53.100;6.078;2023-07-31T02:45:16;15.90;99.90
52044;DHT22;38053;53.100;6.078;2023-07-31T02:47:42;15.90;99.90
52044;DHT22;38053;53.100;6.078;2023-07-31T02:50:08;15.90;99.90
52044;DHT22;38053;53.100;6.078;2023-07-31T02:52:34;15.90;99.90
52044;DHT22;38053;53.100;6.078;2023-07-31T02:54:59;15.90;99.90
52044;DHT22;38053;53.100;6.078;2023-07-31T02:57:25;15.90;99.90
52044;DHT22;38053;53.100;6.078;2023-07-31T02:59:51;15.90;99.90
52044;DHT22;38053;53.100;6.078;2023-07-31T03:02:16;15.90;99.90
52044;DHT22;38053;53.100;6.078;2023-07-31T03:04:42;15.80;99.90
52044;DHT22;38053;53.100;6.078;2023-07-31T03:07:08;15.90;99.90
52044;DHT22;38053;53.100;6.078;2023-07-31T03:09:33;15.80;99.90
52044;DHT22;38053;53.100;6.078;2023-07-31T03:11:59;15.80;99.90
52044;DHT22;38053;53.100;6.078;2023-07-31T03:14:25;15.80;99.90
52044;DHT22;38053;53.100;6.078;2023-07-31T03:16:52;15.80;99.90
52044;DHT22;38053;53.100;6.078;2023-07-31T03:19:18;15.80;99.90
52044;DHT22;38053;53.100;6.078;2023-07-31T03:21:43;15.80;99.90
52044;DHT22;38053;53.100;6.078;2023-07-31T03:24:09;15.80;99.90
52044;DHT22;38053;53.100;6.078;2023-07-31T03:26:35;15.80;99.90
52044;DHT22;38053;53.100;6.078;2023-07-31T03:29:02;15.80;99.90
52044;DHT22;38053;53.100;6.078;2023-07-31T03:31:27;15.70;99.90
52044;DHT22;38053;53.100;6.078;2023-07-31T03:33:56;15.70;99.90
52044;DHT22;38053;53.100;6.078;2023-07-31T03:36:21;15.70;99.90
52044;DHT22;38053;53.100;6.078;2023-07-31T03:38:47;15.70;99.90
52044;DHT22;38053;53.100;6.078;2023-07-31T03:41:13;15.70;99.90
52044;DHT22;38053;53.100;6.078;2023-07-31T03:43:38;15.70;99.90
52044;DHT22;38053;53.100;6.078;2023-07-31T03:46:04;15.70;99.90
52044;DHT22;38053;53.100;6.078;2023-07-31T03:48:30;15.70;99.90
52044;DHT22;38053;53.100;6.078;2023-07-31T03:50:56;15.70;99.90
52044;DHT22;38053;53.100;6.078;2023-07-31T03:53:21;15.70;99.90
52044;DHT22;38053;53.100;6.078;2023-07-31T03:55:47;15.70;99.90
52044;DHT22;38053;53.100;6.078;2023-07-31T03:58:13;15.70;99.90
52044;DHT22;38053;53.100;6.078;2023-07-31T04:00:40;15.60;99.90
52044;DHT22;38053;53.100;6.078;2023-07-31T04:03:06;15.60;99.90
52044;DHT22;38053;53.100;6.078;2023-07-31T04:05:32;15.60;99.90
52044;DHT22;38053;53.100;6.078;2023-07-31T04:07:58;15.60;99.90
52044;DHT22;38053;53.100;6.078;2023-07-31T04:10:24;15.60;99.90
52044;DHT22;38053;53.100;6.078;2023-07-31T04:12:49;15.60;99.90
52044;DHT22;38053;53.100;6.078;2023-07-31T04:15:15;15.60;99.90
52044;DHT22;38053;53.100;6.078;2023-07-31T04:17:41;15.60;99.90
52044;DHT22;38053;53.100;6.078;2023-07-31T04:20:07;15.60;99.90
52044;DHT22;38053;53.100;6.078;2023-07-31T04:22:33;15.60;99.90
52044;DHT22;38053;53.100;6.078;2023-07-31T04:24:59;15.60;99.90
52044;DHT22;38053;53.100;6.078;2023-07-31T04:27:25;15.60;99.90
52044;DHT22;38053;53.100;6.078;2023-07-31T04:29:51;15.60;99.90
52044;DHT22;38053;53.100;6.078;2023-07-31T04:32:17;15.60;99.90
52044;DHT22;38053;53.100;6.078;2023-07-31T04:34:43;15.70;99.90
52044;DHT22;38053;53.100;6.078;2023-07-31T04:37:08;15.70;99.90
52044;DHT22;38053;53.100;6.078;2023-07-31T04:39:34;15.70;99.90
52044;DHT22;38053;53.100;6.078;2023-07-31T04:42:00;15.70;99.90
52044;DHT22;38053;53.100;6.078;2023-07-31T04:44:26;15.70;99.90
52044;DHT22;38053;53.100;6.078;2023-07-31T04:46:51;15.70;99.90
52044;DHT22;38053;53.100;6.078;2023-07-31T04:49:17;15.70;99.90
52044;DHT22;38053;53.100;6.078;2023-07-31T04:51:43;15.70;99.90
52044;DHT22;38053;53.100;6.078;2023-07-31T04:54:08;15.80;99.90
52044;DHT22;38053;53.100;6.078;2023-07-31T04:56:34;15.80;99.90
52044;DHT22;38053;53.100;6.078;2023-07-31T04:59:00;15.80;99.90
52044;DHT22;38053;53.100;6.078;2023-07-31T05:01:25;15.90;99.90
52044;DHT22;38053;53.100;6.078;2023-07-31T05:03:51;15.80;99.90
52044;DHT22;38053;53.100;6.078;2023-07-31T05:06:17;15.80;99.90
52044;DHT22;38053;53.100;6.078;2023-07-31T05:08:43;15.80;99.90
52044;DHT22;38053;53.100;6.078;2023-07-31T05:11:08;15.80;99.90
52044;DHT22;38053;53.100;6.078;2023-07-31T05:13:34;15.80;99.90
52044;DHT22;38053;53.100;6.078;2023-07-31T05:16:00;15.80;99.90
52044;DHT22;38053;53.100;6.078;2023-07-31T05:18:25;15.80;99.90
52044;DHT22;38053;53.100;6.078;2023-07-31T05:20:54;15.80;99.90
52044;DHT22;38053;53.100;6.078;2023-07-31T05:23:19;15.80;99.90
52044;DHT22;38053;53.100;6.078;2023-07-31T05:25:45;15.80;99.90
52044;DHT22;38053;53.100;6.078;2023-07-31T05:28:12;15.80;99.90
52044;DHT22;38053;53.100;6.078;2023-07-31T05:30:38;15.80;99.90
52044;DHT22;38053;53.100;6.078;2023-07-31T05:33:03;15.80;99.90
52044;DHT22;38053;53.100;6.078;2023-07-31T05:35:29;15.90;99.90
52044;DHT22;38053;53.100;6.078;2023-07-31T05:37:55;15.90;99.90
52044;DHT22;38053;53.100;6.078;2023-07-31T05:40:20;15.90;99.90
52044;DHT22;38053;53.100;6.078;2023-07-31T05:42:46;15.90;99.90
52044;DHT22;38053;53.100;6.078;2023-07-31T05:45:12;15.90;99.90
52044;DHT22;38053;53.100;6.078;2023-07-31T05:47:39;16.00;99.90
52044;DHT22;38053;53.100;6.078;2023-07-31T05:50:05;16.00;99.90
52044;DHT22;38053;53.100;6.078;2023-07-31T05:52:31;16.10;99.90
52044;DHT22;38053;53.100;6.078;2023-07-31T05:54:57;16.10;99.90
52044;DHT22;38053;53.100;6.078;2023-07-31T05:57:22;16.10;99.90
52044;DHT22;38053;53.100;6.078;2023-07-31T05:59:48;16.20;99.90
52044;DHT22;38053;53.100;6.078;2023-07-31T06:02:14;16.30;99.90
52044;DHT22;38053;53.100;6.078;2023-07-31T06:04:40;16.30;99.90
52044;DHT22;38053;53.100;6.078;2023-07-31T06:07:05;16.30;99.90
52044;DHT22;38053;53.100;6.078;2023-07-31T06:09:31;16.40;99.90
52044;DHT22;38053;53.100;6.078;2023-07-31T06:11:57;16.40;99.90
52044;DHT22;38053;53.100;6.078;2023-07-31T06:14:22;16.40;99.90
52044;DHT22;38053;53.100;6.078;2023-07-31T06:16:48;16.50;99.90
52044;DHT22;38053;53.100;6.078;2023-07-31T06:19:14;16.50;99.90
52044;DHT22;38053;53.100;6.078;2023-07-31T06:21:40;16.50;99.90
52044;DHT22;38053;53.100;6.078;2023-07-31T06:24:07;16.50;99.90
52044;DHT22;38053;53.100;6.078;2023-07-31T06:26:33;16.60;99.90
52044;DHT22;38053;53.100;6.078;2023-07-31T06:28:59;16.60;99.90
52044;DHT22;38053;53.100;6.078;2023-07-31T06:31:25;16.60;99.90
52044;DHT22;38053;53.100;6.078;2023-07-31T06:33:52;16.60;99.90
52044;DHT22;38053;53.100;6.078;2023-07-31T06:36:18;16.70;99.90
52044;DHT22;38053;53.100;6.078;2023-07-31T06:38:44;16.70;99.90
52044;DHT22;38053;53.100;6.078;2023-07-31T06:41:09;16.70;99.90
52044;DHT22;38053;53.100;6.078;2023-07-31T06:43:36;16.70;99.90
52044;DHT22;38053;53.100;6.078;2023-07-31T06:46:06;16.70;99.90
52044;DHT22;38053;53.100;6.078;2023-07-31T06:48:33;16.70;99.90
52044;DHT22;38053;53.100;6.078;2023-07-31T06:50:59;16.60;99.90
52044;DHT22;38053;53.100;6.078;2023-07-31T06:53:24;16.60;99.90
52044;DHT22;38053;53.100;6.078;2023-07-31T06:55:50;16.60;99.90
52044;DHT22;38053;53.100;6.078;2023-07-31T06:58:17;16.60;99.90
52044;DHT22;38053;53.100;6.078;2023-07-31T07:00:43;16.60;99.90
52044;DHT22;38053;53.100;6.078;2023-07-31T07:03:08;16.70;99.90
52044;DHT22;38053;53.100;6.078;2023-07-31T07:05:34;16.80;99.90
52044;DHT22;38053;53.100;6.078;2023-07-31T07:08:00;16.80;99.90
52044;DHT22;38053;53.100;6.078;2023-07-31T07:10:26;16.90;99.90
52044;DHT22;38053;53.100;6.078;2023-07-31T07:12:52;16.80;99.90
52044;DHT22;38053;53.100;6.078;2023-07-31T07:15:18;16.80;99.90
52044;DHT22;38053;53.100;6.078;2023-07-31T07:17:44;16.80;99.90
52044;DHT22;38053;53.100;6.078;2023-07-31T07:20:10;16.80;99.90
52044;DHT22;38053;53.100;6.078;2023-07-31T07:22:36;16.90;99.90
52044;DHT22;38053;53.100;6.078;2023-07-31T07:25:02;16.90;99.90
52044;DHT22;38053;53.100;6.078;2023-07-31T07:27:28;16.90;99.90
52044;DHT22;38053;53.100;6.078;2023-07-31T07:29:54;16.90;99.90
52044;DHT22;38053;53.100;6.078;2023-07-31T07:32:20;16.90;99.90
52044;DHT22;38053;53.100;6.078;2023-07-31T07:34:47;17.00;99.90
52044;DHT22;38053;53.100;6.078;2023-07-31T07:37:13;17.00;99.90
52044;DHT22;38053;53.100;6.078;2023-07-31T07:39:39;17.00;99.90
52044;DHT22;38053;53.100;6.078;2023-07-31T07:42:05;17.00;99.90
52044;DHT22;38053;53.100;6.078;2023-07-31T07:44:30;17.00;99.90
52044;DHT22;38053;53.100;6.078;2023-07-31T07:46:56;17.00;99.90
52044;DHT22;38053;53.100;6.078;2023-07-31T07:49:22;16.90;99.90
52044;DHT22;38053;53.100;6.078;2023-07-31T07:51:48;16.90;99.90
52044;DHT22;38053;53.100;6.078;2023-07-31T07:54:15;16.90;99.90
52044;DHT22;38053;53.100;6.078;2023-07-31T07:56:42;16.90;99.90
52044;DHT22;38053;53.100;6.078;2023-07-31T07:59:08;16.90;99.90
52044;DHT22;38053;53.100;6.078;2023-07-31T08:01:34;16.90;99.90
52044;DHT22;38053;53.100;6.078;2023-07-31T08:04:00;16.80;99.90
52044;DHT22;38053;53.100;6.078;2023-07-31T08:06:25;16.80;99.90
52044;DHT22;38053;53.100;6.078;2023-07-31T08:08:51;16.80;99.90
52044;DHT22;38053;53.100;6.078;2023-07-31T08:11:17;16.80;99.90
52044;DHT22;38053;53.100;6.078;2023-07-31T08:13:42;16.90;99.90
52044;DHT22;38053;53.100;6.078;2023-07-31T08:16:08;16.90;99.90
52044;DHT22;38053;53.100;6.078;2023-07-31T08:18:35;17.00;99.90
52044;DHT22;38053;53.100;6.078;2023-07-31T08:21:04;17.00;99.90
52044;DHT22;38053;53.100;6.078;2023-07-31T08:23:30;17.10;99.90
52044;DHT22;38053;53.100;6.078;2023-07-31T08:25:56;17.10;99.90
52044;DHT22;38053;53.100;6.078;2023-07-31T08:28:21;17.10;99.90
52044;DHT22;38053;53.100;6.078;2023-07-31T08:30:47;17.10;99.90
52044;DHT22;38053;53.100;6.078;2023-07-31T08:33:13;17.00;99.90
52044;DHT22;38053;53.100;6.078;2023-07-31T08:35:38;17.10;99.90
52044;DHT22;38053;53.100;6.078;2023-07-31T08:38:04;17.10;99.90
52044;DHT22;38053;53.100;6.078;2023-07-31T08:40:30;17.10;99.90
52044;DHT22;38053;53.100;6.078;2023-07-31T08:42:56;17.10;99.90
52044;DHT22;38053;53.100;6.078;2023-07-31T08:45:22;17.10;99.90
52044;DHT22;38053;53.100;6.078;2023-07-31T08:47:50;17.20;99.90
52044;DHT22;38053;53.100;6.078;2023-07-31T08:50:18;17.20;99.90
52044;DHT22;38053;53.100;6.078;2023-07-31T08:52:45;17.20;99.90
52044;DHT22;38053;53.100;6.078;2023-07-31T08:55:11;17.20;99.90
52044;DHT22;38053;53.100;6.078;2023-07-31T08:57:38;17.20;99.90
52044;DHT22;38053;53.100;6.078;2023-07-31T09:00:06;17.20;99.90
52044;DHT22;38053;53.100;6.078;2023-07-31T09:02:43;17.30;99.90
52044;DHT22;38053;53.100;6.078;2023-07-31T09:05:11;17.30;99.90
52044;DHT22;38053;53.100;6.078;2023-07-31T09:07:37;17.30;99.90
52044;DHT22;38053;53.100;6.078;2023-07-31T09:10:04;17.30;99.90
52044;DHT22;38053;53.100;6.078;2023-07-31T09:12:30;17.30;99.90
52044;DHT22;38053;53.100;6.078;2023-07-31T09:15:00;17.30;99.90
52044;DHT22;38053;53.100;6.078;2023-07-31T09:17:35;17.40;99.90
52044;DHT22;38053;53.100;6.078;2023-07-31T09:20:15;17.50;99.90
52044;DHT22;38053;53.100;6.078;2023-07-31T09:22:42;17.50;99.90
52044;DHT22;38053;53.100;6.078;2023-07-31T09:30:14;17.70;99.90
52044;DHT22;38053;53.100;6.078;2023-07-31T09:32:40;17.70;99.90
52044;DHT22;38053;53.100;6.078;2023-07-31T09:35:27;17.80;99.90
52044;DHT22;38053;53.100;6.078;2023-07-31T09:37:55;17.80;99.90
52044;DHT22;38053;53.100;6.078;2023-07-31T09:40:42;17.90;99.90
52044;DHT22;38053;53.100;6.078;2023-07-31T09:43:09;17.90;99.90
52044;DHT22;38053;53.100;6.078;2023-07-31T09:45:41;17.90;99.90
52044;DHT22;38053;53.100;6.078;2023-07-31T09:48:13;17.90;99.90
52044;DHT22;38053;53.100;6.078;2023-07-31T09:50:47;17.90;99.90
52044;DHT22;38053;53.100;6.078;2023-07-31T09:53:14;17.90;99.90
52044;DHT22;38053;53.100;6.078;2023-07-31T09:55:41;18.00;99.90
52044;DHT22;38053;53.100;6.078;2023-07-31T09:58:12;18.00;99.90
52044;DHT22;38053;53.100;6.078;2023-07-31T10:00:39;18.10;99.90
52044;DHT22;38053;53.100;6.078;2023-07-31T10:03:08;18.20;99.90
52044;DHT22;38053;53.100;6.078;2023-07-31T10:05:44;18.20;99.90
52044;DHT22;38053;53.100;6.078;2023-07-31T10:08:14;18.20;99.90
52044;DHT22;38053;53.100;6.078;2023-07-31T10:10:45;18.20;99.90
52044;DHT22;38053;53.100;6.078;2023-07-31T10:13:12;18.20;99.90
52044;DHT22;38053;53.100;6.078;2023-07-31T10:15:38;18.20;99.90
52044;DHT22;38053;53.100;6.078;2023-07-31T10:18:06;18.20;99.90
52044;DHT22;38053;53.100;6.078;2023-07-31T10:20:33;18.20;99.90
52044;DHT22;38053;53.100;6.078;2023-07-31T10:22:59;18.20;99.90
52044;DHT22;38053;53.100;6.078;2023-07-31T10:25:27;18.30;99.90
52044;DHT22;38053;53.100;6.078;2023-07-31T10:27:53;18.30;99.90
52044;DHT22;38053;53.100;6.078;2023-07-31T10:30:27;18.30;99.90
52044;DHT22;38053;53.100;6.078;2023-07-31T10:32:55;18.30;99.90
52044;DHT22;38053;53.100;6.078;2023-07-31T10:35:21;18.30;99.90
52044;DHT22;38053;53.100;6.078;2023-07-31T10:37:52;18.30;99.90
52044;DHT22;38053;53.100;6.078;2023-07-31T10:40:23;18.40;99.90
52044;DHT22;38053;53.100;6.078;2023-07-31T10:42:53;18.40;99.90
52044;DHT22;38053;53.100;6.078;2023-07-31T10:48:32;18.40;99.90
52044;DHT22;38053;53.100;6.078;2023-07-31T10:50:56;18.50;99.90
52044;DHT22;38053;53.100;6.078;2023-07-31T10:53:30;18.60;99.90
52044;DHT22;38053;53.100;6.078;2023-07-31T10:56:00;18.60;99.90
52044;DHT22;38053;53.100;6.078;2023-07-31T10:58:26;18.70;99.90
52044;DHT22;38053;53.100;6.078;2023-07-31T11:00:57;18.80;99.90
52044;DHT22;38053;53.100;6.078;2023-07-31T11:06:06;19.00;99.90
52044;DHT22;38053;53.100;6.078;2023-07-31T11:08:34;19.00;99.90
52044;DHT22;38053;53.100;6.078;2023-07-31T11:13:33;19.00;99.90
52044;DHT22;38053;53.100;6.078;2023-07-31T11:16:00;19.00;99.90
52044;DHT22;38053;53.100;6.078;2023-07-31T11:18:26;19.10;99.90
52044;DHT22;38053;53.100;6.078;2023-07-31T11:20:54;19.20;99.90
52044;DHT22;38053;53.100;6.078;2023-07-31T11:23:21;19.20;99.90
52044;DHT22;38053;53.100;6.078;2023-07-31T11:25:50;19.10;99.90
52044;DHT22;38053;53.100;6.078;2023-07-31T11:28:18;19.10;99.90
52044;DHT22;38053;53.100;6.078;2023-07-31T11:30:46;19.10;99.90
52044;DHT22;38053;53.100;6.078;2023-07-31T11:33:13;19.10;99.90
52044;DHT22;38053;53.100;6.078;2023-07-31T11:35:46;19.00;99.90
52044;DHT22;38053;53.100;6.078;2023-07-31T11:38:30;18.90;99.90
52044;DHT22;38053;53.100;6.078;2023-07-31T11:41:01;18.90;99.90
52044;DHT22;38053;53.100;6.078;2023-07-31T11:43:31;18.80;99.90
52044;DHT22;38053;53.100;6.078;2023-07-31T11:45:58;19.00;99.90
52044;DHT22;38053;53.100;6.078;2023-07-31T11:48:29;19.20;99.90
52044;DHT22;38053;53.100;6.078;2023-07-31T11:51:01;19.40;99.90
52044;DHT22;38053;53.100;6.078;2023-07-31T11:53:38;19.40;99.90
52044;DHT22;38053;53.100;6.078;2023-07-31T11:56:07;19.40;99.90
52044;DHT22;38053;53.100;6.078;2023-07-31T11:58:35;19.30;99.90
52044;DHT22;38053;53.100;6.078;2023-07-31T12:01:02;19.30;99.90
52044;DHT22;38053;53.100;6.078;2023-07-31T12:03:28;19.20;99.90
52044;DHT22;38053;53.100;6.078;2023-07-31T12:05:54;19.10;99.90
52044;DHT22;38053;53.100;6.078;2023-07-31T12:08:24;19.00;99.90
52044;DHT22;38053;53.100;6.078;2023-07-31T12:10:51;18.90;99.90
52044;DHT22;38053;53.100;6.078;2023-07-31T12:13:25;18.90;99.90
52044;DHT22;38053;53.100;6.078;2023-07-31T12:15:56;19.00;99.90
52044;DHT22;38053;53.100;6.078;2023-07-31T12:18:25;19.00;99.90
52044;DHT22;38053;53.100;6.078;2023-07-31T12:20:56;19.10;99.90
52044;DHT22;38053;53.100;6.078;2023-07-31T12:23:25;19.10;99.90
52044;DHT22;38053;53.100;6.078;2023-07-31T12:26:03;19.10;99.90
52044;DHT22;38053;53.100;6.078;2023-07-31T12:28:29;19.10;99.90
52044;DHT22;38053;53.100;6.078;2023-07-31T12:31:00;19.20;99.90
52044;DHT22;38053;53.100;6.078;2023-07-31T12:33:33;19.20;99.90
52044;DHT22;38053;53.100;6.078;2023-07-31T12:36:01;19.30;99.90
52044;DHT22;38053;53.100;6.078;2023-07-31T12:38:28;19.30;99.90
52044;DHT22;38053;53.100;6.078;2023-07-31T12:40:54;19.20;99.90
52044;DHT22;38053;53.100;6.078;2023-07-31T12:43:19;19.20;99.90
52044;DHT22;38053;53.100;6.078;2023-07-31T12:45:45;19.10;99.90
52044;DHT22;38053;53.100;6.078;2023-07-31T12:48:13;19.00;99.90
52044;DHT22;38053;53.100;6.078;2023-07-31T12:50:39;19.10;99.90
52044;DHT22;38053;53.100;6.078;2023-07-31T12:53:05;19.10;99.90
52044;DHT22;38053;53.100;6.078;2023-07-31T12:55:31;19.10;99.90
52044;DHT22;38053;53.100;6.078;2023-07-31T12:58:00;19.20;99.90
52044;DHT22;38053;53.100;6.078;2023-07-31T13:00:26;19.30;99.90
52044;DHT22;38053;53.100;6.078;2023-07-31T13:02:51;19.30;99.90
52044;DHT22;38053;53.100;6.078;2023-07-31T13:05:17;19.40;99.90
52044;DHT22;38053;53.100;6.078;2023-07-31T13:07:45;19.40;99.90
52044;DHT22;38053;53.100;6.078;2023-07-31T13:10:11;19.50;99.90
52044;DHT22;38053;53.100;6.078;2023-07-31T13:12:39;19.60;99.90
52044;DHT22;38053;53.100;6.078;2023-07-31T13:15:06;19.60;99.90
52044;DHT22;38053;53.100;6.078;2023-07-31T13:17:32;19.60;99.90
52044;DHT22;38053;53.100;6.078;2023-07-31T13:19:58;19.60;99.90
52044;DHT22;38053;53.100;6.078;2023-07-31T13:22:24;19.70;99.90
52044;DHT22;38053;53.100;6.078;2023-07-31T13:24:49;19.70;99.90
52044;DHT22;38053;53.100;6.078;2023-07-31T13:27:17;19.70;99.90
52044;DHT22;38053;53.100;6.078;2023-07-31T13:29:45;19.60;99.90
52044;DHT22;38053;53.100;6.078;2023-07-31T13:32:11;19.60;99.90
52044;DHT22;38053;53.100;6.078;2023-07-31T13:34:37;19.70;99.90
52044;DHT22;38053;53.100;6.078;2023-07-31T13:37:03;19.70;99.90
52044;DHT22;38053;53.100;6.078;2023-07-31T13:39:31;19.80;99.90
52044;DHT22;38053;53.100;6.078;2023-07-31T13:41:57;19.90;99.90
52044;DHT22;38053;53.100;6.078;2023-07-31T13:44:23;19.90;99.90
52044;DHT22;38053;53.100;6.078;2023-07-31T13:46:49;19.90;99.90
52044;DHT22;38053;53.100;6.078;2023-07-31T13:49:14;19.80;99.90
52044;DHT22;38053;53.100;6.078;2023-07-31T13:51:41;19.70;99.90
52044;DHT22;38053;53.100;6.078;2023-07-31T13:54:06;19.50;99.90
52044;DHT22;38053;53.100;6.078;2023-07-31T13:56:32;19.30;99.90
52044;DHT22;38053;53.100;6.078;2023-07-31T13:58:58;19.00;99.90
52044;DHT22;38053;53.100;6.078;2023-07-31T14:01:26;18.90;99.90
52044;DHT22;38053;53.100;6.078;2023-07-31T14:03:51;18.80;99.90
52044;DHT22;38053;53.100;6.078;2023-07-31T14:06:17;18.80;99.90
52044;DHT22;38053;53.100;6.078;2023-07-31T14:08:43;18.80;99.90
52044;DHT22;38053;53.100;6.078;2023-07-31T14:11:08;18.90;99.90
52044;DHT22;38053;53.100;6.078;2023-07-31T14:13:34;18.90;99.90
52044;DHT22;38053;53.100;6.078;2023-07-31T14:16:00;18.90;99.90
52044;DHT22;38053;53.100;6.078;2023-07-31T14:18:25;18.90;99.90
52044;DHT22;38053;53.100;6.078;2023-07-31T14:20:51;18.90;99.90
52044;DHT22;38053;53.100;6.078;2023-07-31T14:23:17;19.00;99.90
52044;DHT22;38053;53.100;6.078;2023-07-31T14:25:45;19.00;99.90
52044;DHT22;38053;53.100;6.078;2023-07-31T14:28:11;19.00;99.90
52044;DHT22;38053;53.100;6.078;2023-07-31T14:30:37;19.00;99.90
52044;DHT22;38053;53.100;6.078;2023-07-31T14:33:03;18.90;99.90
52044;DHT22;38053;53.100;6.078;2023-07-31T14:35:28;18.90;99.90
52044;DHT22;38053;53.100;6.078;2023-07-31T14:37:54;18.90;99.90
52044;DHT22;38053;53.100;6.078;2023-07-31T14:40:20;18.80;99.90
52044;DHT22;38053;53.100;6.078;2023-07-31T14:42:49;18.90;99.90
52044;DHT22;38053;53.100;6.078;2023-07-31T14:45:14;18.90;99.90
52044;DHT22;38053;53.100;6.078;2023-07-31T14:47:40;18.80;99.90
52044;DHT22;38053;53.100;6.078;2023-07-31T14:50:06;18.80;99.90
52044;DHT22;38053;53.100;6.078;2023-07-31T14:52:32;18.80;99.90
52044;DHT22;38053;53.100;6.078;2023-07-31T14:54:58;18.80;99.90
52044;DHT22;38053;53.100;6.078;2023-07-31T14:57:23;18.80;99.90
52044;DHT22;38053;53.100;6.078;2023-07-31T14:59:49;18.80;99.90
52044;DHT22;38053;53.100;6.078;2023-07-31T15:02:15;18.80;99.90
52044;DHT22;38053;53.100;6.078;2023-07-31T15:04:41;18.70;99.90
52044;DHT22;38053;53.100;6.078;2023-07-31T15:07:09;18.80;99.90
52044;DHT22;38053;53.100;6.078;2023-07-31T15:09:34;18.80;99.90
52044;DHT22;38053;53.100;6.078;2023-07-31T15:12:00;18.80;99.90
52044;DHT22;38053;53.100;6.078;2023-07-31T15:14:26;18.80;99.90
52044;DHT22;38053;53.100;6.078;2023-07-31T15:16:56;18.80;99.90
52044;DHT22;38053;53.100;6.078;2023-07-31T15:19:22;18.80;99.90
52044;DHT22;38053;53.100;6.078;2023-07-31T15:21:49;18.80;99.90
52044;DHT22;38053;53.100;6.078;2023-07-31T15:24:15;18.90;99.90
52044;DHT22;38053;53.100;6.078;2023-07-31T15:26:40;18.90;99.90
52044;DHT22;38053;53.100;6.078;2023-07-31T15:29:08;18.90;99.90
52044;DHT22;38053;53.100;6.078;2023-07-31T15:31:35;18.90;99.90
52044;DHT22;38053;53.100;6.078;2023-07-31T15:34:01;18.90;99.90
52044;DHT22;38053;53.100;6.078;2023-07-31T15:36:27;18.90;99.90
52044;DHT22;38053;53.100;6.078;2023-07-31T15:38:52;18.90;99.90
52044;DHT22;38053;53.100;6.078;2023-07-31T15:41:18;19.00;99.90
52044;DHT22;38053;53.100;6.078;2023-07-31T15:43:45;19.00;99.90
52044;DHT22;38053;53.100;6.078;2023-07-31T15:46:11;19.00;99.90
52044;DHT22;38053;53.100;6.078;2023-07-31T15:48:37;19.00;99.90
52044;DHT22;38053;53.100;6.078;2023-07-31T15:51:03;19.00;99.90
52044;DHT22;38053;53.100;6.078;2023-07-31T15:53:30;19.00;99.90